Terminal Aerodrome Forecast
Issued by NWS Cleveland, OH

Home | Current Version | Previous Version | Graphics & Text | Print | Product List | Glossary On
Versions: 1 2 3 4 5 6 7 8 9 10 11 12 13 14 15 16 17 18 19 20 21 22 23 24
676
FTUS41 KCLE 271120
TAFCLE
TAF
KCLE 271120Z 2712/2818 19014G22KT P6SM FEW050 BKN150
      TEMPO 2718/2720 5SM -TSRA BKN035CB OVC050
     FM272100 23015G25KT P6SM OVC050
     FM280200 24012KT P6SM OVC050=

USA.gov is the U.S. government's official web portal to all federal, state and local government web resources and services.